sensor_id;sensor_type;location;lat;lon;timestamp;P1;durP1;ratioP1;P2;durP2;ratioP2
27145;SDS011;17980;51.744;7.190;2023-08-12T00:02:20;10.43;;;9.43;;
27145;SDS011;17980;51.744;7.190;2023-08-12T00:04:47;9.90;;;8.97;;
27145;SDS011;17980;51.744;7.190;2023-08-12T00:07:15;8.80;;;8.00;;
27145;SDS011;17980;51.744;7.190;2023-08-12T00:09:42;9.47;;;8.57;;
27145;SDS011;17980;51.744;7.190;2023-08-12T00:12:19;8.87;;;8.07;;
27145;SDS011;17980;51.744;7.190;2023-08-12T00:14:46;9.87;;;8.87;;
27145;SDS011;17980;51.744;7.190;2023-08-12T00:17:14;8.70;;;7.93;;
27145;SDS011;17980;51.744;7.190;2023-08-12T00:19:41;8.80;;;7.90;;
27145;SDS011;17980;51.744;7.190;2023-08-12T00:22:18;10.27;;;9.47;;
27145;SDS011;17980;51.744;7.190;2023-08-12T00:24:45;9.63;;;8.73;;
27145;SDS011;17980;51.744;7.190;2023-08-12T00:27:13;10.70;;;9.67;;
27145;SDS011;17980;51.744;7.190;2023-08-12T00:29:40;10.37;;;9.37;;
27145;SDS011;17980;51.744;7.190;2023-08-12T00:32:17;11.13;;;10.10;;
27145;SDS011;17980;51.744;7.190;2023-08-12T00:34:44;10.77;;;9.77;;
27145;SDS011;17980;51.744;7.190;2023-08-12T00:37:11;10.83;;;9.90;;
27145;SDS011;17980;51.744;7.190;2023-08-12T00:39:39;10.70;;;9.70;;
27145;SDS011;17980;51.744;7.190;2023-08-12T00:42:16;10.60;;;9.63;;
27145;SDS011;17980;51.744;7.190;2023-08-12T00:44:43;12.07;;;10.93;;
27145;SDS011;17980;51.744;7.190;2023-08-12T00:47:10;11.07;;;9.07;;
27145;SDS011;17980;51.744;7.190;2023-08-12T00:49:38;10.27;;;9.37;;
27145;SDS011;17980;51.744;7.190;2023-08-12T00:52:16;9.73;;;8.83;;
27145;SDS011;17980;51.744;7.190;2023-08-12T00:54:45;8.87;;;7.87;;
27145;SDS011;17980;51.744;7.190;2023-08-12T00:57:12;8.57;;;7.77;;
27145;SDS011;17980;51.744;7.190;2023-08-12T00:59:39;9.33;;;8.33;;
27145;SDS011;17980;51.744;7.190;2023-08-12T01:02:18;9.97;;;9.07;;
27145;SDS011;17980;51.744;7.190;2023-08-12T01:04:45;8.57;;;7.83;;
27145;SDS011;17980;51.744;7.190;2023-08-12T01:07:13;8.47;;;7.67;;
27145;SDS011;17980;51.744;7.190;2023-08-12T01:09:40;8.00;;;7.20;;
27145;SDS011;17980;51.744;7.190;2023-08-12T01:12:18;7.93;;;6.87;;
27145;SDS011;17980;51.744;7.190;2023-08-12T01:14:51;7.73;;;6.87;;
27145;SDS011;17980;51.744;7.190;2023-08-12T01:17:29;7.70;;;7.00;;
27145;SDS011;17980;51.744;7.190;2023-08-12T01:19:57;9.47;;;8.50;;
27145;SDS011;17980;51.744;7.190;2023-08-12T01:22:35;9.57;;;7.70;;
27145;SDS011;17980;51.744;7.190;2023-08-12T01:25:06;9.37;;;8.47;;
27145;SDS011;17980;51.744;7.190;2023-08-12T01:27:35;9.07;;;8.27;;
27145;SDS011;17980;51.744;7.190;2023-08-12T01:30:02;12.27;;;8.23;;
27145;SDS011;17980;51.744;7.190;2023-08-12T01:32:42;10.20;;;9.20;;
27145;SDS011;17980;51.744;7.190;2023-08-12T01:35:14;10.20;;;9.13;;
27145;SDS011;17980;51.744;7.190;2023-08-12T01:37:52;10.57;;;9.47;;
27145;SDS011;17980;51.744;7.190;2023-08-12T01:40:20;11.23;;;10.13;;
27145;SDS011;17980;51.744;7.190;2023-08-12T01:42:57;12.70;;;11.40;;
27145;SDS011;17980;51.744;7.190;2023-08-12T01:45:26;10.97;;;10.00;;
27145;SDS011;17980;51.744;7.190;2023-08-12T01:47:55;13.63;;;12.23;;
27145;SDS011;17980;51.744;7.190;2023-08-12T01:50:23;13.97;;;12.53;;
27145;SDS011;17980;51.744;7.190;2023-08-12T01:53:00;13.57;;;12.13;;
27145;SDS011;17980;51.744;7.190;2023-08-12T01:55:27;12.73;;;11.63;;
27145;SDS011;17980;51.744;7.190;2023-08-12T01:57:54;14.03;;;11.67;;
27145;SDS011;17980;51.744;7.190;2023-08-12T02:00:31;11.90;;;10.70;;
27145;SDS011;17980;51.744;7.190;2023-08-12T02:02:59;11.87;;;10.53;;
27145;SDS011;17980;51.744;7.190;2023-08-12T02:05:36;10.67;;;9.70;;
27145;SDS011;17980;51.744;7.190;2023-08-12T02:08:04;12.43;;;10.13;;
27145;SDS011;17980;51.744;7.190;2023-08-12T02:10:32;11.03;;;9.90;;
27145;SDS011;17980;51.744;7.190;2023-08-12T02:13:09;11.17;;;9.97;;
27145;SDS011;17980;51.744;7.190;2023-08-12T02:15:36;11.83;;;10.47;;
27145;SDS011;17980;51.744;7.190;2023-08-12T02:18:04;11.93;;;10.73;;
27145;SDS011;17980;51.744;7.190;2023-08-12T02:20:32;11.00;;;9.90;;
27145;SDS011;17980;51.744;7.190;2023-08-12T02:23:09;11.80;;;10.70;;
27145;SDS011;17980;51.744;7.190;2023-08-12T02:25:36;12.40;;;10.80;;
27145;SDS011;17980;51.744;7.190;2023-08-12T02:28:03;11.17;;;10.13;;
27145;SDS011;17980;51.744;7.190;2023-08-12T02:30:31;11.23;;;10.10;;
27145;SDS011;17980;51.744;7.190;2023-08-12T02:33:08;11.20;;;10.10;;
27145;SDS011;17980;51.744;7.190;2023-08-12T02:35:35;11.57;;;10.47;;
27145;SDS011;17980;51.744;7.190;2023-08-12T02:38:03;11.87;;;9.40;;
27145;SDS011;17980;51.744;7.190;2023-08-12T02:40:30;12.80;;;10.30;;
27145;SDS011;17980;51.744;7.190;2023-08-12T02:43:07;10.10;;;9.20;;
27145;SDS011;17980;51.744;7.190;2023-08-12T02:45:37;10.20;;;9.20;;
27145;SDS011;17980;51.744;7.190;2023-08-12T02:48:05;11.17;;;10.00;;
27145;SDS011;17980;51.744;7.190;2023-08-12T02:50:33;10.60;;;9.53;;
27145;SDS011;17980;51.744;7.190;2023-08-12T02:53:00;11.13;;;8.70;;
27145;SDS011;17980;51.744;7.190;2023-08-12T02:55:28;12.33;;;10.20;;
27145;SDS011;17980;51.744;7.190;2023-08-12T02:57:57;10.43;;;9.23;;
27145;SDS011;17980;51.744;7.190;2023-08-12T03:00:25;10.73;;;9.77;;
27145;SDS011;17980;51.744;7.190;2023-08-12T03:03:07;11.53;;;10.37;;
27145;SDS011;17980;51.744;7.190;2023-08-12T03:05:35;13.70;;;11.30;;
27145;SDS011;17980;51.744;7.190;2023-08-12T03:08:03;11.70;;;9.87;;
27145;SDS011;17980;51.744;7.190;2023-08-12T03:10:32;11.43;;;10.17;;
27145;SDS011;17980;51.744;7.190;2023-08-12T03:13:09;15.00;;;12.07;;
27145;SDS011;17980;51.744;7.190;2023-08-12T03:15:38;11.97;;;10.83;;
27145;SDS011;17980;51.744;7.190;2023-08-12T03:18:06;13.83;;;12.37;;
27145;SDS011;17980;51.744;7.190;2023-08-12T03:20:42;14.87;;;12.97;;
27145;SDS011;17980;51.744;7.190;2023-08-12T03:23:10;14.87;;;12.53;;
27145;SDS011;17980;51.744;7.190;2023-08-12T03:25:47;16.27;;;13.33;;
27145;SDS011;17980;51.744;7.190;2023-08-12T03:28:14;18.90;;;16.57;;
27145;SDS011;17980;51.744;7.190;2023-08-12T03:30:42;18.40;;;16.33;;
27145;SDS011;17980;51.744;7.190;2023-08-12T03:33:18;19.23;;;16.37;;
27145;SDS011;17980;51.744;7.190;2023-08-12T03:35:46;18.17;;;16.23;;
27145;SDS011;17980;51.744;7.190;2023-08-12T03:38:30;16.83;;;15.23;;
27145;SDS011;17980;51.744;7.190;2023-08-12T03:40:57;17.47;;;15.77;;
27145;SDS011;17980;51.744;7.190;2023-08-12T03:43:34;19.60;;;15.63;;
27145;SDS011;17980;51.744;7.190;2023-08-12T03:46:03;17.00;;;15.30;;
27145;SDS011;17980;51.744;7.190;2023-08-12T03:48:31;19.27;;;15.73;;
27145;SDS011;17980;51.744;7.190;2023-08-12T03:51:08;18.47;;;15.70;;
27145;SDS011;17980;51.744;7.190;2023-08-12T03:53:35;19.90;;;15.80;;
27145;SDS011;17980;51.744;7.190;2023-08-12T03:56:13;18.03;;;15.93;;
27145;SDS011;17980;51.744;7.190;2023-08-12T03:58:42;17.10;;;15.23;;
27145;SDS011;17980;51.744;7.190;2023-08-12T04:01:09;18.93;;;16.20;;
27145;SDS011;17980;51.744;7.190;2023-08-12T04:03:46;17.30;;;14.30;;
27145;SDS011;17980;51.744;7.190;2023-08-12T04:06:14;17.40;;;14.20;;
27145;SDS011;17980;51.744;7.190;2023-08-12T04:08:41;20.40;;;15.90;;
27145;SDS011;17980;51.744;7.190;2023-08-12T04:11:08;18.40;;;15.90;;
27145;SDS011;17980;51.744;7.190;2023-08-12T04:13:45;18.40;;;16.47;;
27145;SDS011;17980;51.744;7.190;2023-08-12T04:16:13;20.33;;;16.83;;
27145;SDS011;17980;51.744;7.190;2023-08-12T04:18:40;18.27;;;16.13;;
27145;SDS011;17980;51.744;7.190;2023-08-12T04:21:08;18.70;;;16.83;;
27145;SDS011;17980;51.744;7.190;2023-08-12T04:23:45;19.57;;;16.60;;
27145;SDS011;17980;51.744;7.190;2023-08-12T04:26:12;19.20;;;17.20;;
27145;SDS011;17980;51.744;7.190;2023-08-12T04:28:40;20.10;;;17.00;;
27145;SDS011;17980;51.744;7.190;2023-08-12T04:31:08;18.80;;;16.97;;
27145;SDS011;17980;51.744;7.190;2023-08-12T04:33:45;19.27;;;17.27;;
27145;SDS011;17980;51.744;7.190;2023-08-12T04:36:13;18.57;;;16.63;;
27145;SDS011;17980;51.744;7.190;2023-08-12T04:38:40;22.40;;;18.63;;
27145;SDS011;17980;51.744;7.190;2023-08-12T04:41:07;21.03;;;18.77;;
27145;SDS011;17980;51.744;7.190;2023-08-12T04:43:44;23.50;;;19.57;;
27145;SDS011;17980;51.744;7.190;2023-08-12T04:46:12;21.60;;;18.60;;
27145;SDS011;17980;51.744;7.190;2023-08-12T04:48:39;20.03;;;18.00;;
27145;SDS011;17980;51.744;7.190;2023-08-12T04:51:06;19.53;;;17.53;;
27145;SDS011;17980;51.744;7.190;2023-08-12T04:53:49;21.90;;;18.57;;
27145;SDS011;17980;51.744;7.190;2023-08-12T04:56:17;21.37;;;19.27;;
27145;SDS011;17980;51.744;7.190;2023-08-12T04:58:44;20.33;;;18.20;;
27145;SDS011;17980;51.744;7.190;2023-08-12T05:01:11;21.37;;;18.97;;
27145;SDS011;17980;51.744;7.190;2023-08-12T05:03:48;21.00;;;18.93;;
27145;SDS011;17980;51.744;7.190;2023-08-12T05:06:16;21.40;;;19.20;;
27145;SDS011;17980;51.744;7.190;2023-08-12T05:08:43;21.27;;;19.10;;
27145;SDS011;17980;51.744;7.190;2023-08-12T05:11:10;25.67;;;19.87;;
27145;SDS011;17980;51.744;7.190;2023-08-12T05:13:47;21.53;;;19.17;;
27145;SDS011;17980;51.744;7.190;2023-08-12T05:16:15;21.00;;;17.97;;
27145;SDS011;17980;51.744;7.190;2023-08-12T05:18:42;22.03;;;19.63;;
27145;SDS011;17980;51.744;7.190;2023-08-12T05:21:09;22.43;;;18.37;;
27145;SDS011;17980;51.744;7.190;2023-08-12T05:23:46;22.10;;;18.67;;
27145;SDS011;17980;51.744;7.190;2023-08-12T05:26:13;21.27;;;19.17;;
27145;SDS011;17980;51.744;7.190;2023-08-12T05:28:41;23.67;;;19.70;;
27145;SDS011;17980;51.744;7.190;2023-08-12T05:31:08;23.83;;;19.83;;
27145;SDS011;17980;51.744;7.190;2023-08-12T05:33:45;23.60;;;19.77;;
27145;SDS011;17980;51.744;7.190;2023-08-12T05:36:12;24.60;;;20.07;;
27145;SDS011;17980;51.744;7.190;2023-08-12T05:38:50;19.53;;;17.60;;
27145;SDS011;17980;51.744;7.190;2023-08-12T05:41:18;20.40;;;17.47;;
27145;SDS011;17980;51.744;7.190;2023-08-12T05:43:55;20.73;;;18.37;;
27145;SDS011;17980;51.744;7.190;2023-08-12T05:46:22;20.47;;;16.87;;
27145;SDS011;17980;51.744;7.190;2023-08-12T05:48:49;21.47;;;18.43;;
27145;SDS011;17980;51.744;7.190;2023-08-12T05:51:17;19.37;;;17.40;;
27145;SDS011;17980;51.744;7.190;2023-08-12T05:53:54;19.90;;;17.03;;
27145;SDS011;17980;51.744;7.190;2023-08-12T05:56:21;20.97;;;17.00;;
27145;SDS011;17980;51.744;7.190;2023-08-12T05:58:48;22.00;;;18.23;;
27145;SDS011;17980;51.744;7.190;2023-08-12T06:01:16;20.50;;;17.43;;
27145;SDS011;17980;51.744;7.190;2023-08-12T06:03:54;21.13;;;18.60;;
27145;SDS011;17980;51.744;7.190;2023-08-12T06:06:21;21.43;;;18.90;;
27145;SDS011;17980;51.744;7.190;2023-08-12T06:08:48;22.50;;;19.30;;
27145;SDS011;17980;51.744;7.190;2023-08-12T06:11:29;25.20;;;19.43;;
27145;SDS011;17980;51.744;7.190;2023-08-12T06:13:56;21.03;;;18.77;;
27145;SDS011;17980;51.744;7.190;2023-08-12T06:16:33;22.27;;;19.93;;
27145;SDS011;17980;51.744;7.190;2023-08-12T06:19:01;23.50;;;21.00;;
27145;SDS011;17980;51.744;7.190;2023-08-12T06:21:28;22.83;;;19.30;;
27145;SDS011;17980;51.744;7.190;2023-08-12T06:24:06;23.80;;;19.00;;
27145;SDS011;17980;51.744;7.190;2023-08-12T06:26:33;19.50;;;17.43;;
27145;SDS011;17980;51.744;7.190;2023-08-12T06:29:01;20.97;;;18.30;;
27145;SDS011;17980;51.744;7.190;2023-08-12T06:31:28;20.17;;;17.50;;
27145;SDS011;17980;51.744;7.190;2023-08-12T06:33:56;21.87;;;19.67;;
27145;SDS011;17980;51.744;7.190;2023-08-12T06:36:33;22.77;;;18.03;;
27145;SDS011;17980;51.744;7.190;2023-08-12T06:39:00;21.60;;;19.40;;
27145;SDS011;17980;51.744;7.190;2023-08-12T06:41:27;21.80;;;19.50;;
27145;SDS011;17980;51.744;7.190;2023-08-12T06:43:55;21.07;;;18.97;;
27145;SDS011;17980;51.744;7.190;2023-08-12T06:46:33;20.37;;;18.23;;
27145;SDS011;17980;51.744;7.190;2023-08-12T06:49:00;21.67;;;19.37;;
27145;SDS011;17980;51.744;7.190;2023-08-12T06:51:27;21.00;;;18.53;;
27145;SDS011;17980;51.744;7.190;2023-08-12T06:53:54;19.23;;;17.23;;
27145;SDS011;17980;51.744;7.190;2023-08-12T06:56:31;20.40;;;18.50;;
27145;SDS011;17980;51.744;7.190;2023-08-12T06:58:59;21.50;;;19.40;;
27145;SDS011;17980;51.744;7.190;2023-08-12T07:01:26;22.93;;;19.17;;
27145;SDS011;17980;51.744;7.190;2023-08-12T07:03:54;24.40;;;21.60;;
27145;SDS011;17980;51.744;7.190;2023-08-12T07:06:31;26.83;;;23.97;;
27145;SDS011;17980;51.744;7.190;2023-08-12T07:08:58;26.13;;;22.37;;
27145;SDS011;17980;51.744;7.190;2023-08-12T07:11:25;24.93;;;22.33;;
27145;SDS011;17980;51.744;7.190;2023-08-12T07:13:52;20.60;;;18.33;;
27145;SDS011;17980;51.744;7.190;2023-08-12T07:16:29;22.37;;;19.70;;
27145;SDS011;17980;51.744;7.190;2023-08-12T07:18:57;21.10;;;18.67;;
27145;SDS011;17980;51.744;7.190;2023-08-12T07:21:34;58.07;;;52.03;;
27145;SDS011;17980;51.744;7.190;2023-08-12T07:24:01;19.80;;;16.27;;
27145;SDS011;17980;51.744;7.190;2023-08-12T07:26:38;17.30;;;15.53;;
27145;SDS011;17980;51.744;7.190;2023-08-12T07:29:05;15.90;;;14.20;;
27145;SDS011;17980;51.744;7.190;2023-08-12T07:31:42;15.00;;;13.50;;
27145;SDS011;17980;51.744;7.190;2023-08-12T07:34:10;16.60;;;14.10;;
27145;SDS011;17980;51.744;7.190;2023-08-12T07:36:46;15.30;;;13.60;;
27145;SDS011;17980;51.744;7.190;2023-08-12T07:41:50;15.27;;;13.70;;
27145;SDS011;17980;51.744;7.190;2023-08-12T07:44:17;17.43;;;13.07;;
27145;SDS011;17980;51.744;7.190;2023-08-12T07:46:54;17.00;;;12.50;;
27145;SDS011;17980;51.744;7.190;2023-08-12T07:49:23;14.17;;;12.53;;
27145;SDS011;17980;51.744;7.190;2023-08-12T07:51:50;13.70;;;12.37;;
27145;SDS011;17980;51.744;7.190;2023-08-12T07:54:17;13.50;;;11.10;;
27145;SDS011;17980;51.744;7.190;2023-08-12T07:56:54;11.90;;;10.67;;
27145;SDS011;17980;51.744;7.190;2023-08-12T08:01:58;11.90;;;9.70;;
27145;SDS011;17980;51.744;7.190;2023-08-12T08:04:25;9.53;;;8.63;;
27145;SDS011;17980;51.744;7.190;2023-08-12T08:07:02;12.13;;;8.30;;
27145;SDS011;17980;51.744;7.190;2023-08-12T08:09:29;10.53;;;7.63;;
27145;SDS011;17980;51.744;7.190;2023-08-12T08:11:57;8.40;;;7.50;;
27145;SDS011;17980;51.744;7.190;2023-08-12T08:14:24;10.47;;;7.27;;
27145;SDS011;17980;51.744;7.190;2023-08-12T08:17:01;9.53;;;6.30;;
27145;SDS011;17980;51.744;7.190;2023-08-12T08:22:05;5.63;;;5.10;;
27145;SDS011;17980;51.744;7.190;2023-08-12T08:24:32;5.87;;;5.03;;
27145;SDS011;17980;51.744;7.190;2023-08-12T08:27:09;5.47;;;5.00;;
27145;SDS011;17980;51.744;7.190;2023-08-12T08:32:12;5.87;;;5.33;;
27145;SDS011;17980;51.744;7.190;2023-08-12T08:34:40;6.13;;;4.80;;
27145;SDS011;17980;51.744;7.190;2023-08-12T08:37:17;6.83;;;4.77;;
27145;SDS011;17980;51.744;7.190;2023-08-12T08:39:44;6.43;;;4.40;;
27145;SDS011;17980;51.744;7.190;2023-08-12T08:42:11;7.23;;;5.17;;
27145;SDS011;17980;51.744;7.190;2023-08-12T08:44:41;7.27;;;4.83;;
27145;SDS011;17980;51.744;7.190;2023-08-12T08:47:19;9.50;;;5.53;;
27145;SDS011;17980;51.744;7.190;2023-08-12T08:49:48;5.47;;;4.83;;
27145;SDS011;17980;51.744;7.190;2023-08-12T08:52:16;5.57;;;4.90;;
27145;SDS011;17980;51.744;7.190;2023-08-12T08:54:45;5.00;;;4.50;;
27145;SDS011;17980;51.744;7.190;2023-08-12T08:57:22;5.53;;;5.03;;
27145;SDS011;17980;51.744;7.190;2023-08-12T08:59:49;6.43;;;5.93;;
27145;SDS011;17980;51.744;7.190;2023-08-12T09:02:17;6.57;;;5.50;;
27145;SDS011;17980;51.744;7.190;2023-08-12T09:04:44;7.07;;;5.30;;
27145;SDS011;17980;51.744;7.190;2023-08-12T09:07:22;7.50;;;6.30;;
27145;SDS011;17980;51.744;7.190;2023-08-12T09:09:49;5.87;;;5.47;;
27145;SDS011;17980;51.744;7.190;2023-08-12T09:12:18;5.87;;;5.43;;
27145;SDS011;17980;51.744;7.190;2023-08-12T09:14:47;6.67;;;6.07;;
27145;SDS011;17980;51.744;7.190;2023-08-12T09:17:24;6.13;;;5.63;;
27145;SDS011;17980;51.744;7.190;2023-08-12T09:19:52;5.50;;;5.00;;
27145;SDS011;17980;51.744;7.190;2023-08-12T09:22:19;6.57;;;6.00;;
27145;SDS011;17980;51.744;7.190;2023-08-12T09:24:47;7.40;;;6.63;;
27145;SDS011;17980;51.744;7.190;2023-08-12T09:27:17;6.60;;;5.97;;
27145;SDS011;17980;51.744;7.190;2023-08-12T09:29:55;7.67;;;6.40;;
27145;SDS011;17980;51.744;7.190;2023-08-12T09:32:23;7.13;;;6.43;;
27145;SDS011;17980;51.744;7.190;2023-08-12T09:34:51;6.87;;;6.23;;
27145;SDS011;17980;51.744;7.190;2023-08-12T09:37:28;7.87;;;6.40;;
27145;SDS011;17980;51.744;7.190;2023-08-12T09:42:32;6.77;;;6.17;;
27145;SDS011;17980;51.744;7.190;2023-08-12T09:45:00;6.87;;;5.90;;
27145;SDS011;17980;51.744;7.190;2023-08-12T09:47:37;6.47;;;5.87;;
27145;SDS011;17980;51.744;7.190;2023-08-12T09:50:07;5.87;;;5.47;;
27145;SDS011;17980;51.744;7.190;2023-08-12T09:55:12;5.90;;;5.33;;
27145;SDS011;17980;51.744;7.190;2023-08-12T09:57:42;7.10;;;5.77;;
27145;SDS011;17980;51.744;7.190;2023-08-12T10:00:20;6.70;;;6.20;;
27145;SDS011;17980;51.744;7.190;2023-08-12T10:02:49;6.97;;;6.47;;
27145;SDS011;17980;51.744;7.190;2023-08-12T10:05:19;6.83;;;6.33;;
27145;SDS011;17980;51.744;7.190;2023-08-12T10:07:58;7.40;;;6.70;;
27145;SDS011;17980;51.744;7.190;2023-08-12T10:10:28;7.03;;;6.33;;
27145;SDS011;17980;51.744;7.190;2023-08-12T10:12:57;6.73;;;6.10;;
27145;SDS011;17980;51.744;7.190;2023-08-12T10:15:25;6.67;;;6.17;;
27145;SDS011;17980;51.744;7.190;2023-08-12T10:18:02;6.73;;;5.90;;
27145;SDS011;17980;51.744;7.190;2023-08-12T10:20:31;6.57;;;5.90;;
27145;SDS011;17980;51.744;7.190;2023-08-12T10:23:01;5.80;;;5.30;;
27145;SDS011;17980;51.744;7.190;2023-08-12T10:25:32;5.43;;;4.97;;
27145;SDS011;17980;51.744;7.190;2023-08-12T10:28:09;5.30;;;4.83;;
27145;SDS011;17980;51.744;7.190;2023-08-12T10:30:37;5.23;;;4.73;;
27145;SDS011;17980;51.744;7.190;2023-08-12T10:33:08;6.53;;;4.60;;
27145;SDS011;17980;51.744;7.190;2023-08-12T10:35:43;4.70;;;4.30;;
27145;SDS011;17980;51.744;7.190;2023-08-12T10:38:20;5.80;;;3.60;;
27145;SDS011;17980;51.744;7.190;2023-08-12T10:40:48;6.23;;;4.40;;
27145;SDS011;17980;51.744;7.190;2023-08-12T10:43:16;4.90;;;3.73;;
27145;SDS011;17980;51.744;7.190;2023-08-12T10:45:53;3.37;;;3.07;;
27145;SDS011;17980;51.744;7.190;2023-08-12T10:48:22;3.87;;;3.57;;
27145;SDS011;17980;51.744;7.190;2023-08-12T10:50:52;3.00;;;2.80;;
27145;SDS011;17980;51.744;7.190;2023-08-12T10:53:24;2.87;;;2.60;;
27145;SDS011;17980;51.744;7.190;2023-08-12T10:56:07;4.50;;;2.87;;
27145;SDS011;17980;51.744;7.190;2023-08-12T10:58:41;5.63;;;3.60;;
27145;SDS011;17980;51.744;7.190;2023-08-12T11:01:13;3.80;;;3.60;;
27145;SDS011;17980;51.744;7.190;2023-08-12T11:03:50;4.50;;;3.97;;
27145;SDS011;17980;51.744;7.190;2023-08-12T11:06:19;4.20;;;3.90;;
27145;SDS011;17980;51.744;7.190;2023-08-12T11:08:56;4.20;;;3.90;;
27145;SDS011;17980;51.744;7.190;2023-08-12T11:11:26;6.50;;;6.00;;
27145;SDS011;17980;51.744;7.190;2023-08-12T11:13:54;5.50;;;5.00;;
27145;SDS011;17980;51.744;7.190;2023-08-12T11:16:31;4.10;;;3.80;;
27145;SDS011;17980;51.744;7.190;2023-08-12T11:19:02;3.70;;;3.40;;
27145;SDS011;17980;51.744;7.190;2023-08-12T11:21:39;4.97;;;4.00;;
27145;SDS011;17980;51.744;7.190;2023-08-12T11:24:08;4.50;;;3.30;;
27145;SDS011;17980;51.744;7.190;2023-08-12T11:26:45;3.67;;;3.37;;
27145;SDS011;17980;51.744;7.190;2023-08-12T11:29:14;3.63;;;2.67;;
27145;SDS011;17980;51.744;7.190;2023-08-12T11:31:51;3.13;;;2.83;;
27145;SDS011;17980;51.744;7.190;2023-08-12T11:34:18;3.80;;;3.50;;
27145;SDS011;17980;51.744;7.190;2023-08-12T11:36:55;3.60;;;3.00;;
27145;SDS011;17980;51.744;7.190;2023-08-12T11:39:23;2.87;;;2.67;;
27145;SDS011;17980;51.744;7.190;2023-08-12T11:44:27;3.60;;;3.30;;
27145;SDS011;17980;51.744;7.190;2023-08-12T11:47:04;3.60;;;3.30;;
27145;SDS011;17980;51.744;7.190;2023-08-12T11:49:32;5.23;;;3.57;;
27145;SDS011;17980;51.744;7.190;2023-08-12T11:51:59;4.03;;;3.03;;
27145;SDS011;17980;51.744;7.190;2023-08-12T11:54:27;3.17;;;2.67;;
27145;SDS011;17980;51.744;7.190;2023-08-12T11:57:05;2.90;;;2.33;;
27145;SDS011;17980;51.744;7.190;2023-08-12T11:59:32;1.83;;;1.73;;
27145;SDS011;17980;51.744;7.190;2023-08-12T12:02:01;1.97;;;1.70;;
27145;SDS011;17980;51.744;7.190;2023-08-12T12:04:31;2.20;;;2.10;;
27145;SDS011;17980;51.744;7.190;2023-08-12T12:07:17;2.00;;;1.90;;
27145;SDS011;17980;51.744;7.190;2023-08-12T12:09:45;2.20;;;2.10;;
27145;SDS011;17980;51.744;7.190;2023-08-12T12:12:13;2.33;;;2.20;;
27145;SDS011;17980;51.744;7.190;2023-08-12T12:14:40;6.77;;;2.10;;
27145;SDS011;17980;51.744;7.190;2023-08-12T12:17:17;2.03;;;1.93;;
27145;SDS011;17980;51.744;7.190;2023-08-12T12:19:47;1.77;;;1.67;;
27145;SDS011;17980;51.744;7.190;2023-08-12T12:22:16;1.43;;;1.33;;
27145;SDS011;17980;51.744;7.190;2023-08-12T12:24:46;0.90;;;0.90;;
27145;SDS011;17980;51.744;7.190;2023-08-12T12:27:14;1.07;;;1.07;;
27145;SDS011;17980;51.744;7.190;2023-08-12T12:29:41;1.20;;;1.10;;
27145;SDS011;17980;51.744;7.190;2023-08-12T12:32:11;1.30;;;1.10;;
27145;SDS011;17980;51.744;7.190;2023-08-12T12:34:39;1.10;;;1.10;;
27145;SDS011;17980;51.744;7.190;2023-08-12T12:37:16;1.20;;;1.10;;
27145;SDS011;17980;51.744;7.190;2023-08-12T12:39:43;1.30;;;1.20;;
27145;SDS011;17980;51.744;7.190;2023-08-12T12:42:10;1.70;;;1.00;;
27145;SDS011;17980;51.744;7.190;2023-08-12T12:44:38;1.80;;;1.70;;
27145;SDS011;17980;51.744;7.190;2023-08-12T12:47:15;1.43;;;1.40;;
27145;SDS011;17980;51.744;7.190;2023-08-12T12:49:42;1.53;;;1.30;;
27145;SDS011;17980;51.744;7.190;2023-08-12T12:52:10;2.03;;;1.30;;
27145;SDS011;17980;51.744;7.190;2023-08-12T12:54:38;1.37;;;1.00;;
27145;SDS011;17980;51.744;7.190;2023-08-12T12:57:15;2.50;;;1.20;;
27145;SDS011;17980;51.744;7.190;2023-08-12T12:59:42;1.73;;;1.30;;
27145;SDS011;17980;51.744;7.190;2023-08-12T13:02:09;1.10;;;1.10;;
27145;SDS011;17980;51.744;7.190;2023-08-12T13:04:46;1.00;;;0.90;;
27145;SDS011;17980;51.744;7.190;2023-08-12T13:07:15;1.03;;;0.93;;
27145;SDS011;17980;51.744;7.190;2023-08-12T13:09:52;4.00;;;1.00;;
27145;SDS011;17980;51.744;7.190;2023-08-12T13:12:19;1.83;;;0.97;;
27145;SDS011;17980;51.744;7.190;2023-08-12T13:14:47;0.90;;;0.90;;
27145;SDS011;17980;51.744;7.190;2023-08-12T13:17:24;1.80;;;1.00;;
27145;SDS011;17980;51.744;7.190;2023-08-12T13:19:52;0.80;;;0.80;;
27145;SDS011;17980;51.744;7.190;2023-08-12T13:22:19;0.80;;;0.80;;
27145;SDS011;17980;51.744;7.190;2023-08-12T13:24:46;1.10;;;1.00;;
27145;SDS011;17980;51.744;7.190;2023-08-12T13:27:23;1.13;;;1.10;;
27145;SDS011;17980;51.744;7.190;2023-08-12T13:29:51;2.00;;;1.87;;
27145;SDS011;17980;51.744;7.190;2023-08-12T13:32:18;2.20;;;2.10;;
27145;SDS011;17980;51.744;7.190;2023-08-12T13:34:46;2.33;;;2.13;;
27145;SDS011;17980;51.744;7.190;2023-08-12T13:37:23;3.13;;;2.93;;
27145;SDS011;17980;51.744;7.190;2023-08-12T13:39:50;2.53;;;2.43;;
27145;SDS011;17980;51.744;7.190;2023-08-12T13:42:18;5.03;;;2.40;;
27145;SDS011;17980;51.744;7.190;2023-08-12T13:44:45;3.10;;;2.37;;
27145;SDS011;17980;51.744;7.190;2023-08-12T13:47:22;3.63;;;2.40;;
27145;SDS011;17980;51.744;7.190;2023-08-12T13:49:49;4.47;;;2.83;;
27145;SDS011;17980;51.744;7.190;2023-08-12T13:52:17;3.20;;;3.00;;
27145;SDS011;17980;51.744;7.190;2023-08-12T13:54:44;3.90;;;3.50;;
27145;SDS011;17980;51.744;7.190;2023-08-12T13:57:21;3.47;;;3.20;;
27145;SDS011;17980;51.744;7.190;2023-08-12T13:59:49;4.83;;;4.27;;
27145;SDS011;17980;51.744;7.190;2023-08-12T14:02:26;5.40;;;5.03;;
27145;SDS011;17980;51.744;7.190;2023-08-12T14:04:53;7.20;;;5.07;;
27145;SDS011;17980;51.744;7.190;2023-08-12T14:07:30;7.70;;;4.70;;
27145;SDS011;17980;51.744;7.190;2023-08-12T14:09:58;4.57;;;4.23;;
27145;SDS011;17980;51.744;7.190;2023-08-12T14:12:25;3.10;;;2.90;;
27145;SDS011;17980;51.744;7.190;2023-08-12T14:14:52;1.90;;;1.80;;
27145;SDS011;17980;51.744;7.190;2023-08-12T14:17:29;1.43;;;1.33;;
27145;SDS011;17980;51.744;7.190;2023-08-12T14:19:57;2.63;;;1.50;;
27145;SDS011;17980;51.744;7.190;2023-08-12T14:22:25;1.30;;;1.20;;
27145;SDS011;17980;51.744;7.190;2023-08-12T14:24:52;1.23;;;1.13;;
27145;SDS011;17980;51.744;7.190;2023-08-12T14:27:35;1.30;;;1.20;;
27145;SDS011;17980;51.744;7.190;2023-08-12T14:30:03;4.20;;;1.27;;
27145;SDS011;17980;51.744;7.190;2023-08-12T14:32:32;1.57;;;1.30;;
27145;SDS011;17980;51.744;7.190;2023-08-12T14:35:00;1.60;;;1.50;;
27145;SDS011;17980;51.744;7.190;2023-08-12T14:37:36;2.30;;;1.07;;
27145;SDS011;17980;51.744;7.190;2023-08-12T14:40:05;2.97;;;1.30;;
27145;SDS011;17980;51.744;7.190;2023-08-12T14:42:43;1.70;;;1.00;;
27145;SDS011;17980;51.744;7.190;2023-08-12T14:45:10;0.90;;;0.90;;
27145;SDS011;17980;51.744;7.190;2023-08-12T14:47:47;2.47;;;1.17;;
27145;SDS011;17980;51.744;7.190;2023-08-12T14:50:24;3.33;;;1.20;;
27145;SDS011;17980;51.744;7.190;2023-08-12T14:52:55;2.13;;;1.17;;
27145;SDS011;17980;51.744;7.190;2023-08-12T14:55:22;1.77;;;0.90;;
27145;SDS011;17980;51.744;7.190;2023-08-12T14:57:59;2.30;;;1.07;;
27145;SDS011;17980;51.744;7.190;2023-08-12T15:00:26;2.50;;;0.63;;
27145;SDS011;17980;51.744;7.190;2023-08-12T15:03:04;1.10;;;0.60;;
27145;SDS011;17980;51.744;7.190;2023-08-12T15:05:31;2.97;;;0.80;;
27145;SDS011;17980;51.744;7.190;2023-08-12T15:08:08;1.27;;;0.60;;
27145;SDS011;17980;51.744;7.190;2023-08-12T15:10:35;2.07;;;0.60;;
27145;SDS011;17980;51.744;7.190;2023-08-12T15:13:12;1.27;;;0.50;;
27145;SDS011;17980;51.744;7.190;2023-08-12T15:15:40;3.87;;;0.60;;